Piratininga, Brazil
Current Conditions -  °F | °C
As of 8:00 PM on Saturday 20 Dec 2014 (Local Time) from SBBU Reporting Station
Rain Showers Rain Showers  
Wind Chill: 79°   Ceiling: Unl
Heat Index: 82°   Visibility: 6mi
Dew Point: 75°   Wind: 9mph
Humidity: 89%   Direction: 40°NE
Pressure: NA   Gusts: NA
Location:  22.41°S, 49.13°W
Report Text: SBBU 202200Z 04008KT 9999 VCSH FEW035 FEW045TCU SCT075 26/24 Q1010
Loading
Personal Weather Stations






























Interactive Weather Map New forecast layout! Learn more

10-Day Weather Forecast

Advertisements
Track Severe Weather on mobile